Time;durP1;ratioP1;P1;durP2;ratioP2;P2;SDS_P1;SDS_P2;PMS_P1;PMS_P2;Temp;Humidity;BMP_temperature;BMP_pressure;BME280_temperature;BME280_humidity;BME280_pressure;Samples;Min_cycle;Max_cycle;Signal;HPM_P1;HPM_P2
2021/08/05 00:00:54;;;;;;;7.63;5.00;;;;;;;;;;4996027;28;20541;-74
2021/08/05 00:03:58;;;;;;;6.63;4.83;;;;;;;;;;4996595;28;20672;-74
2021/08/05 00:07:02;;;;;;;5.90;4.47;;;;;;;;;;4981923;28;20182;-75
2021/08/05 00:10:07;;;;;;;4.83;3.80;;;;;;;;;;4983831;28;20578;-75
2021/08/05 00:13:11;;;;;;;6.87;4.07;;;;;;;;;;4984447;28;20213;-75
2021/08/05 00:16:15;;;;;;;7.80;4.23;;;;;;;;;;4984458;28;20661;-75
2021/08/05 00:19:19;;;;;;;6.40;4.60;;;;;;;;;;4994388;28;20186;-74
2021/08/05 00:22:23;;;;;;;5.10;3.80;;;;;;;;;;4973204;28;20221;-75
2021/08/05 00:25:27;;;;;;;6.67;4.30;;;;;;;;;;4971618;28;20202;-75
2021/08/05 00:28:42;;;;;;;10.93;4.10;;;;;;;;;;4985453;28;20543;-74
2021/08/05 00:31:46;;;;;;;9.30;3.73;;;;;;;;;;4995845;28;20194;-75
2021/08/05 00:34:50;;;;;;;4.97;3.57;;;;;;;;;;4983914;28;20197;-74
2021/08/05 00:37:54;;;;;;;4.40;3.27;;;;;;;;;;4983788;28;20193;-75
2021/08/05 00:40:59;;;;;;;4.67;3.60;;;;;;;;;;4984561;28;20186;-75
2021/08/05 00:44:05;;;;;;;3.70;3.07;;;;;;;;;;4964283;28;20215;-74
2021/08/05 00:47:10;;;;;;;5.37;3.13;;;;;;;;;;4975583;28;20274;-75
2021/08/05 00:50:14;;;;;;;4.33;3.50;;;;;;;;;;4974395;28;20226;-74
2021/08/05 00:53:20;;;;;;;6.37;3.40;;;;;;;;;;4972702;28;20218;-75
2021/08/05 00:56:25;;;;;;;5.13;3.57;;;;;;;;;;4983554;28;20198;-75
2021/08/05 00:59:29;;;;;;;4.73;3.23;;;;;;;;;;4975760;28;20191;-74
2021/08/05 01:02:40;;;;;;;5.73;3.30;;;;;;;;;;4975932;28;20681;-74
2021/08/05 01:05:52;;;;;;;4.73;3.57;;;;;;;;;;4964215;28;20191;-75
2021/08/05 01:09:22;;;;;;;4.20;2.50;;;;;;;;;;4981803;28;20531;-75
2021/08/05 01:12:52;;;;;;;3.73;3.10;;;;;;;;;;4995329;28;20226;-75
2021/08/05 01:16:00;;;;;;;5.40;3.20;;;;;;;;;;4982791;28;20198;-74
2021/08/05 01:19:41;;;;;;;6.07;3.10;;;;;;;;;;4982873;28;20657;-75
2021/08/05 01:23:04;;;;;;;5.30;3.63;;;;;;;;;;4971755;28;20222;-75
2021/08/05 01:26:46;;;;;;;5.57;3.63;;;;;;;;;;4994603;28;20190;-74
2021/08/05 01:29:52;;;;;;;6.33;4.10;;;;;;;;;;4952491;28;20556;-75
2021/08/05 01:32:58;;;;;;;6.33;4.77;;;;;;;;;;4978645;28;20218;-75
2021/08/05 01:36:04;;;;;;;8.73;5.53;;;;;;;;;;4983295;28;20186;-75
2021/08/05 01:39:09;;;;;;;7.93;4.90;;;;;;;;;;4994402;28;20182;-75
2021/08/05 01:42:17;;;;;;;7.57;4.70;;;;;;;;;;4982602;28;20178;-75
2021/08/05 01:45:21;;;;;;;12.77;5.40;;;;;;;;;;4993728;28;20668;-75
2021/08/05 01:48:28;;;;;;;8.17;4.67;;;;;;;;;;4982782;28;20530;-75
2021/08/05 01:51:32;;;;;;;6.67;4.43;;;;;;;;;;4982506;28;20174;-75
2021/08/05 01:54:37;;;;;;;6.30;4.90;;;;;;;;;;4975346;28;20630;-75
2021/08/05 01:57:43;;;;;;;10.27;5.50;;;;;;;;;;4972186;28;20202;-75
2021/08/05 02:00:48;;;;;;;13.10;5.57;;;;;;;;;;4982480;28;20515;-75
2021/08/05 02:04:29;;;;;;;9.90;5.67;;;;;;;;;;4981933;28;20566;-75
2021/08/05 02:07:54;;;;;;;8.97;5.90;;;;;;;;;;4994139;28;20191;-75
2021/08/05 02:10:59;;;;;;;8.40;5.07;;;;;;;;;;4981829;28;20551;-75
2021/08/05 02:14:06;;;;;;;7.00;5.80;;;;;;;;;;4967342;28;20223;-74
2021/08/05 02:17:11;;;;;;;8.03;5.90;;;;;;;;;;4975180;28;20183;-75
2021/08/05 02:20:16;;;;;;;9.57;6.53;;;;;;;;;;4974949;28;20174;-75
2021/08/05 02:23:21;;;;;;;8.67;6.07;;;;;;;;;;4960669;28;20218;-75
2021/08/05 02:26:26;;;;;;;10.30;6.77;;;;;;;;;;4982488;28;20625;-75
2021/08/05 02:29:31;;;;;;;10.23;6.57;;;;;;;;;;4993711;28;20214;-75
2021/08/05 02:32:37;;;;;;;9.53;6.80;;;;;;;;;;4993917;28;20221;-75
2021/08/05 02:35:47;;;;;;;9.43;7.17;;;;;;;;;;4993990;28;20194;-75
2021/08/05 02:38:51;;;;;;;7.17;6.33;;;;;;;;;;4974023;28;20186;-74
2021/08/05 02:41:56;;;;;;;9.97;5.77;;;;;;;;;;4980669;28;20538;-74
2021/08/05 02:45:01;;;;;;;11.40;6.13;;;;;;;;;;4974747;28;20187;-74
2021/08/05 02:48:06;;;;;;;9.00;6.43;;;;;;;;;;4981410;28;20190;-74
2021/08/05 02:51:11;;;;;;;10.63;6.53;;;;;;;;;;4981859;28;20218;-75
2021/08/05 02:54:16;;;;;;;10.70;6.97;;;;;;;;;;4981647;28;20700;-75
2021/08/05 02:57:20;;;;;;;12.03;7.30;;;;;;;;;;4982073;28;20183;-75
2021/08/05 03:00:24;;;;;;;14.77;6.83;;;;;;;;;;4970932;28;20174;-75
2021/08/05 03:03:28;;;;;;;8.47;6.97;;;;;;;;;;4995795;23;20234;-78
2021/08/05 03:06:33;;;;;;;11.13;7.20;;;;;;;;;;4955806;29;20184;-77
2021/08/05 03:09:38;;;;;;;10.00;7.10;;;;;;;;;;4955162;29;20212;-78
2021/08/05 03:12:42;;;;;;;9.97;7.30;;;;;;;;;;4960583;28;20222;-78
2021/08/05 03:15:46;;;;;;;10.83;8.03;;;;;;;;;;4974463;28;20199;-78
2021/08/05 03:18:50;;;;;;;10.17;7.80;;;;;;;;;;4974352;28;20183;-76
2021/08/05 03:21:54;;;;;;;13.70;7.80;;;;;;;;;;4974919;28;20175;-78
2021/08/05 03:24:59;;;;;;;13.63;8.27;;;;;;;;;;4974164;28;20190;-76
2021/08/05 03:28:03;;;;;;;11.57;8.57;;;;;;;;;;4976996;28;20187;-78
2021/08/05 03:31:07;;;;;;;13.77;9.27;;;;;;;;;;4978323;28;20215;-78
2021/08/05 03:34:11;;;;;;;11.40;8.20;;;;;;;;;;4965367;28;20226;-78
2021/08/05 03:37:15;;;;;;;16.30;8.27;;;;;;;;;;4966069;28;20206;-77
2021/08/05 03:40:19;;;;;;;13.77;9.93;;;;;;;;;;4967178;28;20191;-77
2021/08/05 03:43:23;;;;;;;15.50;9.37;;;;;;;;;;4955072;28;20222;-77
2021/08/05 03:46:27;;;;;;;11.43;9.00;;;;;;;;;;4959724;29;20188;-77
2021/08/05 03:49:31;;;;;;;15.90;9.00;;;;;;;;;;4947914;29;20199;-78
2021/08/05 03:52:35;;;;;;;15.23;8.80;;;;;;;;;;4936554;29;20219;-78
2021/08/05 03:55:39;;;;;;;16.43;10.00;;;;;;;;;;4972990;28;20190;-78
2021/08/05 03:58:44;;;;;;;11.33;8.50;;;;;;;;;;4955945;28;20198;-78
2021/08/05 04:01:48;;;;;;;12.07;9.00;;;;;;;;;;4979334;28;20182;-78
2021/08/05 04:04:52;;;;;;;12.97;9.00;;;;;;;;;;4967489;28;20512;-78
2021/08/05 04:07:56;;;;;;;12.63;8.77;;;;;;;;;;4955129;28;20182;-78
2021/08/05 04:11:01;;;;;;;13.27;8.40;;;;;;;;;;4964836;28;20215;-78
2021/08/05 04:14:06;;;;;;;11.63;9.10;;;;;;;;;;4936356;28;20227;-78
2021/08/05 04:17:12;;;;;;;10.93;7.67;;;;;;;;;;4976752;28;20206;-78
2021/08/05 04:20:18;;;;;;;12.10;9.00;;;;;;;;;;4954013;28;20534;-78
2021/08/05 04:23:22;;;;;;;12.33;7.70;;;;;;;;;;4945758;29;20227;-77
2021/08/05 04:26:26;;;;;;;16.50;9.03;;;;;;;;;;4934273;29;20191;-78
2021/08/05 04:29:31;;;;;;;16.47;9.20;;;;;;;;;;4945762;29;20179;-77
2021/08/05 04:32:36;;;;;;;13.67;8.57;;;;;;;;;;4950736;28;20222;-77
2021/08/05 04:35:40;;;;;;;8.57;7.10;;;;;;;;;;4964279;28;20195;-78
2021/08/05 04:38:44;;;;;;;12.53;8.10;;;;;;;;;;4963629;28;20190;-77
2021/08/05 04:41:48;;;;;;;10.87;6.77;;;;;;;;;;4964056;28;20202;-77
2021/08/05 04:44:53;;;;;;;9.37;7.00;;;;;;;;;;4964698;28;20183;-78
2021/08/05 04:47:59;;;;;;;7.20;5.57;;;;;;;;;;4964003;28;20199;-78
2021/08/05 04:51:03;;;;;;;10.17;5.30;;;;;;;;;;4965008;28;20281;-78
2021/08/05 04:54:07;;;;;;;7.23;5.10;;;;;;;;;;4966680;28;20226;-78
2021/08/05 04:57:12;;;;;;;5.00;3.43;;;;;;;;;;4976599;28;20187;-77
2021/08/05 05:00:37;;;;;;;4.90;3.70;;;;;;;;;;4957294;28;20199;-78
2021/08/05 05:03:41;;;;;;;7.80;4.53;;;;;;;;;;4975452;28;20234;-77
2021/08/05 05:06:45;;;;;;;5.93;4.70;;;;;;;;;;4964676;28;20178;-77
2021/08/05 05:09:49;;;;;;;5.73;4.63;;;;;;;;;;4963525;28;20199;-77
2021/08/05 05:12:53;;;;;;;4.63;4.13;;;;;;;;;;4975429;28;20218;-77
2021/08/05 05:15:57;;;;;;;6.13;5.00;;;;;;;;;;4951876;28;20190;-77
2021/08/05 05:19:01;;;;;;;6.57;5.10;;;;;;;;;;4975421;28;20194;-77
2021/08/05 05:22:05;;;;;;;6.50;5.40;;;;;;;;;;4976049;28;20175;-77
2021/08/05 05:25:11;;;;;;;7.97;6.43;;;;;;;;;;4944399;29;20187;-75
2021/08/05 05:28:15;;;;;;;6.60;5.83;;;;;;;;;;4965370;28;20670;-74
2021/08/05 05:31:19;;;;;;;7.07;6.10;;;;;;;;;;4966685;28;20219;-74
2021/08/05 05:34:23;;;;;;;9.83;7.40;;;;;;;;;;4975322;28;20187;-74
2021/08/05 05:37:27;;;;;;;8.80;7.30;;;;;;;;;;4975500;28;20198;-75
2021/08/05 05:40:31;;;;;;;10.27;8.33;;;;;;;;;;4974966;28;20638;-75
2021/08/05 05:43:35;;;;;;;10.43;7.40;;;;;;;;;;4966443;28;20226;-75
2021/08/05 05:46:40;;;;;;;8.97;6.73;;;;;;;;;;4975163;28;20195;-75
2021/08/05 05:49:44;;;;;;;8.27;6.20;;;;;;;;;;4963159;28;20179;-74
2021/08/05 05:52:49;;;;;;;6.30;5.60;;;;;;;;;;4974882;28;20218;-74
2021/08/05 05:55:53;;;;;;;10.73;6.17;;;;;;;;;;4966167;28;20187;-74
2021/08/05 05:58:58;;;;;;;6.90;5.20;;;;;;;;;;4975160;28;20183;-74
2021/08/05 06:02:02;;;;;;;7.90;5.40;;;;;;;;;;4974370;28;20210;-75
2021/08/05 06:05:07;;;;;;;7.97;5.80;;;;;;;;;;4955521;29;20184;-75
2021/08/05 06:08:12;;;;;;;7.73;5.20;;;;;;;;;;4956647;28;20547;-74
2021/08/05 06:11:16;;;;;;;8.10;5.70;;;;;;;;;;4974564;28;20214;-74
2021/08/05 06:14:20;;;;;;;7.43;5.73;;;;;;;;;;4951860;28;20222;-74
2021/08/05 06:17:24;;;;;;;6.70;5.33;;;;;;;;;;4974895;28;20183;-74
2021/08/05 06:20:28;;;;;;;7.57;5.37;;;;;;;;;;4974782;28;20198;-74
2021/08/05 06:23:32;;;;;;;7.17;5.47;;;;;;;;;;4974176;28;20229;-74
2021/08/05 06:26:37;;;;;;;7.63;5.63;;;;;;;;;;4962453;28;20665;-75
2021/08/05 06:29:41;;;;;;;10.33;5.90;;;;;;;;;;4974932;28;20175;-75
2021/08/05 06:32:48;;;;;;;9.37;6.53;;;;;;;;;;4974005;28;20225;-74
2021/08/05 06:35:52;;;;;;;7.67;6.30;;;;;;;;;;4975020;28;20531;-74
2021/08/05 06:38:57;;;;;;;10.10;5.97;;;;;;;;;;4953210;28;20187;-75
2021/08/05 06:42:01;;;;;;;10.73;6.83;;;;;;;;;;4973553;28;20183;-75
2021/08/05 06:45:07;;;;;;;10.83;6.80;;;;;;;;;;4962387;28;20190;-74
2021/08/05 06:48:11;;;;;;;8.80;7.00;;;;;;;;;;4974701;28;20183;-75
2021/08/05 06:51:15;;;;;;;8.37;7.00;;;;;;;;;;4973791;28;20218;-74
2021/08/05 06:54:19;;;;;;;10.53;9.07;;;;;;;;;;4974801;28;20218;-75
2021/08/05 06:57:23;;;;;;;10.27;9.07;;;;;;;;;;4973717;28;20186;-75
2021/08/05 07:00:27;;;;;;;12.30;9.83;;;;;;;;;;4974086;28;20179;-74
2021/08/05 07:03:31;;;;;;;16.63;13.63;;;;;;;;;;4958509;29;20226;-74
2021/08/05 07:06:36;;;;;;;10.80;8.47;;;;;;;;;;4959244;29;20658;-75
2021/08/05 07:09:40;;;;;;;10.63;7.87;;;;;;;;;;4956674;28;20210;-74
2021/08/05 07:12:44;;;;;;;10.27;7.60;;;;;;;;;;4977434;28;20234;-74
2021/08/05 07:15:48;;;;;;;12.50;7.83;;;;;;;;;;4966534;28;20507;-75
2021/08/05 07:18:52;;;;;;;19.67;15.43;;;;;;;;;;4977853;28;20182;-74
2021/08/05 07:21:56;;;;;;;12.33;9.07;;;;;;;;;;4977809;28;20198;-75
2021/08/05 07:25:00;;;;;;;10.97;7.50;;;;;;;;;;4965936;28;20199;-74
2021/08/05 07:28:04;;;;;;;11.47;9.83;;;;;;;;;;4966040;28;20186;-74
2021/08/05 07:31:08;;;;;;;11.00;7.57;;;;;;;;;;4977049;28;20211;-74
2021/08/05 07:34:13;;;;;;;11.93;7.00;;;;;;;;;;4977463;28;20222;-74
2021/08/05 07:37:17;;;;;;;8.17;7.33;;;;;;;;;;4977458;28;20183;-74
2021/08/05 07:40:21;;;;;;;14.97;9.70;;;;;;;;;;4968751;28;20191;-74
2021/08/05 07:43:25;;;;;;;10.33;7.10;;;;;;;;;;4977559;28;20222;-74
2021/08/05 07:46:29;;;;;;;9.93;7.73;;;;;;;;;;4965274;28;20195;-74
2021/08/05 07:49:33;;;;;;;10.33;7.27;;;;;;;;;;4976772;28;20190;-74
2021/08/05 07:52:37;;;;;;;8.73;6.93;;;;;;;;;;4964950;28;20242;-74
2021/08/05 07:55:41;;;;;;;9.77;7.87;;;;;;;;;;4965748;28;20206;-74
2021/08/05 07:58:45;;;;;;;9.50;6.93;;;;;;;;;;4963983;28;20202;-74
2021/08/05 08:01:49;;;;;;;9.13;7.57;;;;;;;;;;4977071;28;20178;-74
2021/08/05 08:04:54;;;;;;;11.30;6.97;;;;;;;;;;4953815;28;20198;-74
2021/08/05 08:07:59;;;;;;;11.30;7.90;;;;;;;;;;4976889;28;20198;-74
2021/08/05 08:11:03;;;;;;;9.50;6.87;;;;;;;;;;4958074;29;20682;-74
2021/08/05 08:14:07;;;;;;;8.83;6.63;;;;;;;;;;4954410;28;20226;-74
2021/08/05 08:17:12;;;;;;;7.80;6.53;;;;;;;;;;4975203;28;20202;-74
2021/08/05 08:20:16;;;;;;;7.00;6.27;;;;;;;;;;4945848;29;20211;-74
2021/08/05 08:23:22;;;;;;;10.67;5.80;;;;;;;;;;4957939;29;20674;-74
2021/08/05 08:26:26;;;;;;;7.23;5.83;;;;;;;;;;4969728;28;20214;-74
2021/08/05 08:29:31;;;;;;;8.17;6.40;;;;;;;;;;4964456;28;20202;-74
2021/08/05 08:32:35;;;;;;;7.50;5.70;;;;;;;;;;4976017;28;20226;-74
2021/08/05 08:35:39;;;;;;;8.60;6.00;;;;;;;;;;4976729;28;20186;-73
2021/08/05 08:38:43;;;;;;;7.03;5.67;;;;;;;;;;4976797;28;20183;-74
2021/08/05 08:41:47;;;;;;;6.33;5.73;;;;;;;;;;4976616;28;20175;-74
2021/08/05 08:44:51;;;;;;;6.63;5.43;;;;;;;;;;4976609;28;20202;-74
2021/08/05 08:47:56;;;;;;;7.37;6.20;;;;;;;;;;4976255;28;20187;-74
2021/08/05 08:51:01;;;;;;;9.23;5.47;;;;;;;;;;4976249;28;20206;-74
2021/08/05 08:54:08;;;;;;;6.07;5.13;;;;;;;;;;4964321;28;20219;-74
2021/08/05 08:57:13;;;;;;;9.30;5.63;;;;;;;;;;4976019;28;20187;-74
2021/08/05 09:00:17;;;;;;;6.10;5.50;;;;;;;;;;4976278;28;20187;-74
2021/08/05 09:03:22;;;;;;;7.87;5.07;;;;;;;;;;5001853;23;20233;-76
2021/08/05 09:06:26;;;;;;;6.77;5.17;;;;;;;;;;5027628;28;20189;-76
2021/08/05 09:09:30;;;;;;;6.73;5.10;;;;;;;;;;5034380;28;20197;-76
2021/08/05 09:12:34;;;;;;;5.83;5.20;;;;;;;;;;5039867;28;20228;-76
2021/08/05 09:15:48;;;;;;;6.07;5.47;;;;;;;;;;5054714;28;20176;-76
2021/08/05 09:18:52;;;;;;;6.77;5.10;;;;;;;;;;5042293;28;20180;-76
2021/08/05 09:22:01;;;;;;;8.20;5.70;;;;;;;;;;5042222;28;20192;-77
2021/08/05 09:25:31;;;;;;;9.07;5.53;;;;;;;;;;5053807;28;20176;-76
2021/08/05 09:28:35;;;;;;;7.77;5.20;;;;;;;;;;5019639;28;20183;-76
2021/08/05 09:31:58;;;;;;;6.17;5.07;;;;;;;;;;5053991;28;20675;-76
2021/08/05 09:35:06;;;;;;;9.27;3.90;;;;;;;;;;5041875;28;20180;-76
2021/08/05 09:38:21;;;;;;;6.07;3.80;;;;;;;;;;5042010;28;20183;-76
2021/08/05 09:41:26;;;;;;;7.27;3.80;;;;;;;;;;5053967;28;20187;-76
2021/08/05 09:44:39;;;;;;;4.43;3.60;;;;;;;;;;5041995;28;20218;-76
2021/08/05 09:47:43;;;;;;;4.97;3.87;;;;;;;;;;5054268;28;20187;-76
2021/08/05 09:50:47;;;;;;;3.97;3.17;;;;;;;;;;5042058;28;20517;-75
2021/08/05 09:53:59;;;;;;;3.83;3.43;;;;;;;;;;5029699;28;20219;-76
2021/08/05 09:57:06;;;;;;;6.33;3.53;;;;;;;;;;5053627;28;20185;-77
2021/08/05 10:00:17;;;;;;;4.88;3.50;;;;;;;;;;5033944;28;20192;-77
2021/08/05 10:03:30;;;;;;;7.07;3.90;;;;;;;;;;5033500;28;20221;-77
2021/08/05 10:06:59;;;;;;;3.78;3.22;;;;;;;;;;5029737;28;20190;-77
2021/08/05 10:10:04;;;;;;;6.05;3.65;;;;;;;;;;5055505;28;20660;-78
2021/08/05 10:13:08;;;;;;;6.35;2.85;;;;;;;;;;5032193;28;20229;-77
2021/08/05 10:16:13;;;;;;;4.15;2.55;;;;;;;;;;5042416;28;20214;-78
2021/08/05 10:19:19;;;;;;;4.25;2.75;;;;;;;;;;5034904;28;20196;-78
2021/08/05 10:22:24;;;;;;;3.72;2.47;;;;;;;;;;5049315;28;20558;-78
2021/08/05 10:25:28;;;;;;;4.10;2.83;;;;;;;;;;5022392;28;20207;-77
2021/08/05 10:28:33;;;;;;;4.30;2.40;;;;;;;;;;5038613;28;20203;-78
2021/08/05 10:31:39;;;;;;;3.53;1.92;;;;;;;;;;5043041;28;20192;-78
2021/08/05 10:34:43;;;;;;;3.78;2.75;;;;;;;;;;5056606;28;20531;-78
2021/08/05 10:37:49;;;;;;;3.67;1.92;;;;;;;;;;5062528;28;20187;-78
2021/08/05 10:40:54;;;;;;;4.13;1.98;;;;;;;;;;5048729;28;20188;-78
2021/08/05 10:44:02;;;;;;;2.40;2.20;;;;;;;;;;5050457;28;20693;-79
2021/08/05 10:47:09;;;;;;;2.97;2.00;;;;;;;;;;5062401;28;20188;-79
2021/08/05 10:50:16;;;;;;;2.78;2.25;;;;;;;;;;5048624;28;20187;-78
2021/08/05 10:53:32;;;;;;;2.80;1.92;;;;;;;;;;5028560;28;20235;-78
2021/08/05 10:56:36;;;;;;;3.95;2.17;;;;;;;;;;5033475;28;20196;-78
2021/08/05 11:00:00;;;;;;;4.23;2.30;;;;;;;;;;5047310;28;20205;-78
2021/08/05 11:03:04;;;;;;;3.00;2.60;;;;;;;;;;5058370;28;20691;-77
2021/08/05 11:06:26;;;;;;;5.20;2.90;;;;;;;;;;5046748;28;20196;-78
2021/08/05 11:09:31;;;;;;;2.50;2.23;;;;;;;;;;5037254;28;20197;-78
2021/08/05 11:12:44;;;;;;;2.67;2.10;;;;;;;;;;5017541;28;20230;-78
2021/08/05 11:15:50;;;;;;;3.23;2.53;;;;;;;;;;5035442;28;20192;-78
2021/08/05 11:19:22;;;;;;;3.27;2.40;;;;;;;;;;5060630;28;20180;-79
2021/08/05 11:22:29;;;;;;;3.13;2.40;;;;;;;;;;5020326;28;20217;-78
2021/08/05 11:26:07;;;;;;;4.40;2.70;;;;;;;;;;5045584;28;20526;-78
2021/08/05 11:29:28;;;;;;;6.47;2.57;;;;;;;;;;5023780;28;20196;-78
2021/08/05 11:32:36;;;;;;;3.03;2.40;;;;;;;;;;5048643;28;20228;-78
2021/08/05 11:35:41;;;;;;;3.57;2.40;;;;;;;;;;5060463;28;20532;-78
2021/08/05 11:39:06;;;;;;;3.43;2.37;;;;;;;;;;5048814;28;20645;-78
2021/08/05 11:42:10;;;;;;;3.30;2.80;;;;;;;;;;5036554;28;20189;-78
2021/08/05 11:45:14;;;;;;;3.53;2.47;;;;;;;;;;5036834;28;20180;-78
2021/08/05 11:48:36;;;;;;;3.97;2.07;;;;;;;;;;5047346;28;20197;-78
2021/08/05 11:51:40;;;;;;;5.27;2.30;;;;;;;;;;5060519;28;20196;-78
2021/08/05 11:54:47;;;;;;;2.60;2.13;;;;;;;;;;5061321;28;20188;-78
2021/08/05 11:58:00;;;;;;;2.83;1.97;;;;;;;;;;5060809;28;20202;-78
2021/08/05 12:01:12;;;;;;;2.00;1.77;;;;;;;;;;5028296;28;20192;-78
2021/08/05 12:04:19;;;;;;;3.23;2.00;;;;;;;;;;5007759;28;20241;-78
2021/08/05 12:07:29;;;;;;;3.67;1.80;;;;;;;;;;5047535;28;20187;-79
2021/08/05 12:10:35;;;;;;;3.43;2.07;;;;;;;;;;5061097;28;20622;-78
2021/08/05 12:13:40;;;;;;;4.63;2.33;;;;;;;;;;5047260;28;20222;-78
2021/08/05 12:16:45;;;;;;;12.90;6.57;;;;;;;;;;5059959;28;20195;-79
2021/08/05 12:19:49;;;;;;;2.00;1.80;;;;;;;;;;5059018;28;20198;-78
2021/08/05 12:22:55;;;;;;;7.30;4.17;;;;;;;;;;5046947;28;20216;-78
2021/08/05 12:26:04;;;;;;;7.40;4.07;;;;;;;;;;5040002;28;20184;-79
2021/08/05 12:29:10;;;;;;;13.80;9.07;;;;;;;;;;5034390;28;20191;-78
2021/08/05 12:32:14;;;;;;;3.97;3.00;;;;;;;;;;5046986;28;20196;-78
2021/08/05 12:35:18;;;;;;;3.50;2.50;;;;;;;;;;5058420;28;20185;-78
2021/08/05 12:38:22;;;;;;;8.87;5.40;;;;;;;;;;5036692;28;20194;-78
2021/08/05 12:41:30;;;;;;;12.87;8.90;;;;;;;;;;5044524;28;20532;-76
2021/08/05 12:44:35;;;;;;;6.23;3.73;;;;;;;;;;5043306;28;20182;-77
2021/08/05 12:47:39;;;;;;;9.63;6.68;;;;;;;;;;5035749;28;20178;-76
2021/08/05 12:50:47;;;;;;;9.65;5.35;;;;;;;;;;5042274;28;20192;-77
2021/08/05 12:53:51;;;;;;;6.05;2.92;;;;;;;;;;5044232;28;20222;-77
2021/08/05 12:57:09;;;;;;;4.60;4.20;;;;;;;;;;5046018;28;20186;-76
2021/08/05 13:00:26;;;;;;;4.90;2.30;;;;;;;;;;5059055;28;20194;-77
2021/08/05 13:03:38;;;;;;;1.90;1.80;;;;;;;;;;5058329;28;20217;-77
2021/08/05 13:06:52;;;;;;;2.72;1.88;;;;;;;;;;5048399;28;20199;-77
2021/08/05 13:09:57;;;;;;;4.80;1.60;;;;;;;;;;5062098;28;20193;-77
2021/08/05 13:13:01;;;;;;;1.95;1.70;;;;;;;;;;5056487;28;20699;-77
2021/08/05 13:16:38;;;;;;;2.60;1.60;;;;;;;;;;5043134;28;20196;-78
2021/08/05 13:19:58;;;;;;;3.40;1.60;;;;;;;;;;4990749;28;20661;-78
2021/08/05 13:23:03;;;;;;;3.00;2.70;;;;;;;;;;5023604;28;20226;-77
2021/08/05 13:26:06;;;;;;;3.45;1.52;;;;;;;;;;5052710;28;20190;-78
2021/08/05 13:29:39;;;;;;;1.85;1.30;;;;;;;;;;5021317;28;20645;-79
2021/08/05 13:32:48;;;;;;;1.63;1.33;;;;;;;;;;5028774;28;20766;-77
2021/08/05 13:35:54;;;;;;;2.65;1.30;;;;;;;;;;5027495;28;20204;-77
2021/08/05 13:38:59;;;;;;;2.03;1.83;;;;;;;;;;5039499;28;20653;-77
2021/08/05 13:42:05;;;;;;;3.17;1.67;;;;;;;;;;5038374;28;20698;-78
2021/08/05 13:45:10;;;;;;;2.55;2.00;;;;;;;;;;5043451;28;20178;-78
2021/08/05 13:48:15;;;;;;;1.85;1.52;;;;;;;;;;5033914;28;20206;-78
2021/08/05 13:51:20;;;;;;;1.50;1.30;;;;;;;;;;5057404;28;20205;-78
2021/08/05 13:54:24;;;;;;;1.83;1.58;;;;;;;;;;5045510;28;20215;-78
2021/08/05 13:57:29;;;;;;;3.20;1.90;;;;;;;;;;5033933;28;20183;-78
2021/08/05 14:00:33;;;;;;;2.85;1.27;;;;;;;;;;5015172;28;20650;-78
2021/08/05 14:03:37;;;;;;;2.85;1.98;;;;;;;;;;5041875;28;20219;-77
2021/08/05 14:06:42;;;;;;;1.87;1.50;;;;;;;;;;5045902;28;20189;-78
2021/08/05 14:09:46;;;;;;;1.90;1.70;;;;;;;;;;5044788;28;20196;-78
2021/08/05 14:12:51;;;;;;;2.20;1.70;;;;;;;;;;5033952;28;20689;-78
2021/08/05 14:15:55;;;;;;;2.50;1.33;;;;;;;;;;5034737;28;20186;-78
2021/08/05 14:18:59;;;;;;;1.70;1.60;;;;;;;;;;5038521;28;20185;-78
2021/08/05 14:22:05;;;;;;;3.40;1.90;;;;;;;;;;5040802;28;20198;-78
2021/08/05 14:25:11;;;;;;;1.93;1.50;;;;;;;;;;5045926;28;20181;-78
2021/08/05 14:28:15;;;;;;;3.67;1.30;;;;;;;;;;5046013;28;20184;-78
2021/08/05 14:31:20;;;;;;;3.85;2.00;;;;;;;;;;5045263;28;20183;-78
2021/08/05 14:34:24;;;;;;;2.17;1.55;;;;;;;;;;5045005;28;20200;-78
2021/08/05 14:37:29;;;;;;;1.50;1.25;;;;;;;;;;5057010;28;20188;-78
2021/08/05 14:40:34;;;;;;;2.53;1.30;;;;;;;;;;5030548;28;20191;-78
2021/08/05 14:43:38;;;;;;;2.60;1.42;;;;;;;;;;5057673;28;20222;-78
2021/08/05 14:46:46;;;;;;;1.90;1.35;;;;;;;;;;5033246;28;20191;-78
2021/08/05 14:49:51;;;;;;;1.60;1.50;;;;;;;;;;5049353;28;20533;-77
2021/08/05 14:52:55;;;;;;;3.55;1.17;;;;;;;;;;5057094;28;20692;-78
2021/08/05 14:55:59;;;;;;;1.92;1.50;;;;;;;;;;5044070;28;20200;-78
2021/08/05 14:59:03;;;;;;;1.60;1.30;;;;;;;;;;5042762;28;20198;-78
2021/08/05 15:02:11;;;;;;;3.17;1.60;;;;;;;;;;5044533;28;20193;-78
2021/08/05 15:05:16;;;;;;;5.25;1.50;;;;;;;;;;5032308;23;20235;-74
2021/08/05 15:08:20;;;;;;;3.45;1.70;;;;;;;;;;4992479;28;20187;-73
2021/08/05 15:11:24;;;;;;;3.42;1.40;;;;;;;;;;4988261;28;20196;-74
2021/08/05 15:14:29;;;;;;;1.60;1.30;;;;;;;;;;4973649;28;20226;-74
2021/08/05 15:17:33;;;;;;;2.03;1.33;;;;;;;;;;4973459;28;20185;-73
2021/08/05 15:20:37;;;;;;;1.83;1.10;;;;;;;;;;4974519;28;20186;-73
2021/08/05 15:23:41;;;;;;;1.92;1.73;;;;;;;;;;4960649;28;20217;-74
2021/08/05 15:26:45;;;;;;;1.75;1.30;;;;;;;;;;4973490;28;20201;-74
2021/08/05 15:29:49;;;;;;;1.88;1.42;;;;;;;;;;4962013;28;20633;-74
2021/08/05 15:32:53;;;;;;;2.78;1.40;;;;;;;;;;4973474;28;20232;-74
2021/08/05 15:35:58;;;;;;;2.17;1.38;;;;;;;;;;4974057;28;20192;-74
2021/08/05 15:39:06;;;;;;;5.10;1.23;;;;;;;;;;4967715;28;20189;-74
2021/08/05 15:42:10;;;;;;;1.58;1.20;;;;;;;;;;4955026;29;20176;-73
2021/08/05 15:45:15;;;;;;;1.63;1.27;;;;;;;;;;4969596;28;20200;-73
2021/08/05 15:48:19;;;;;;;2.45;1.40;;;;;;;;;;4973318;28;20208;-73
2021/08/05 15:51:24;;;;;;;1.30;1.20;;;;;;;;;;4950694;28;20216;-74
2021/08/05 15:54:28;;;;;;;1.27;1.15;;;;;;;;;;4973166;28;20564;-74
2021/08/05 15:57:33;;;;;;;3.83;1.10;;;;;;;;;;4976948;28;20655;-74
2021/08/05 16:00:37;;;;;;;1.10;1.00;;;;;;;;;;4977340;28;20196;-75
2021/08/05 16:03:41;;;;;;;2.55;1.30;;;;;;;;;;4976712;28;20217;-73
2021/08/05 16:06:45;;;;;;;2.65;1.15;;;;;;;;;;4957928;29;20667;-74
2021/08/05 16:09:49;;;;;;;3.27;1.17;;;;;;;;;;4958311;29;20205;-74
2021/08/05 16:12:54;;;;;;;3.50;1.70;;;;;;;;;;4957227;29;20233;-74
2021/08/05 16:15:58;;;;;;;1.60;1.10;;;;;;;;;;4977150;28;20518;-73
2021/08/05 16:19:02;;;;;;;2.30;1.07;;;;;;;;;;4977660;28;20509;-74
2021/08/05 16:22:06;;;;;;;1.70;1.30;;;;;;;;;;4977028;28;20202;-74
2021/08/05 16:25:11;;;;;;;1.43;1.00;;;;;;;;;;4964518;28;20186;-74
2021/08/05 16:28:15;;;;;;;1.93;1.20;;;;;;;;;;4964984;28;20205;-74
2021/08/05 16:31:19;;;;;;;2.10;1.10;;;;;;;;;;4978178;28;20183;-74
2021/08/05 16:34:24;;;;;;;1.30;1.07;;;;;;;;;;4976127;28;20218;-73
2021/08/05 16:37:28;;;;;;;1.60;1.10;;;;;;;;;;4964754;28;20197;-74
2021/08/05 16:40:33;;;;;;;2.70;1.23;;;;;;;;;;4976410;28;20190;-74
2021/08/05 16:43:37;;;;;;;3.13;1.10;;;;;;;;;;4976412;28;20229;-74
2021/08/05 16:46:45;;;;;;;3.20;1.20;;;;;;;;;;4976407;28;20192;-74
2021/08/05 16:49:49;;;;;;;8.63;1.00;;;;;;;;;;4976449;28;20196;-73
2021/08/05 16:52:53;;;;;;;1.27;1.10;;;;;;;;;;4976326;28;20217;-73
2021/08/05 16:55:57;;;;;;;1.63;1.30;;;;;;;;;;4976506;28;20190;-74
2021/08/05 16:59:01;;;;;;;1.40;1.23;;;;;;;;;;4958197;28;20195;-73
2021/08/05 17:02:05;;;;;;;2.70;1.30;;;;;;;;;;4964448;28;20212;-74
2021/08/05 17:05:10;;;;;;;1.40;1.20;;;;;;;;;;4975733;28;20665;-74
2021/08/05 17:08:16;;;;;;;10.90;1.40;;;;;;;;;;4976871;28;20183;-74
2021/08/05 17:11:20;;;;;;;5.40;1.20;;;;;;;;;;4975887;28;20531;-74
2021/08/05 17:14:24;;;;;;;2.77;1.30;;;;;;;;;;4964248;28;20211;-74
2021/08/05 17:17:28;;;;;;;1.70;1.30;;;;;;;;;;4964651;28;20183;-74
2021/08/05 17:20:34;;;;;;;2.30;1.30;;;;;;;;;;4963809;28;20195;-74
2021/08/05 17:23:39;;;;;;;1.83;1.27;;;;;;;;;;4963650;28;20223;-74
2021/08/05 17:26:42;;;;;;;2.83;1.30;;;;;;;;;;4976062;28;20191;-74
2021/08/05 17:29:47;;;;;;;3.13;1.17;;;;;;;;;;4964019;28;20662;-72
2021/08/05 17:32:51;;;;;;;3.13;1.30;;;;;;;;;;4975226;28;20231;-74
2021/08/05 17:35:55;;;;;;;3.60;1.40;;;;;;;;;;4975538;28;20190;-74
2021/08/05 17:38:59;;;;;;;1.40;0.80;;;;;;;;;;4975667;28;20187;-73
2021/08/05 17:42:03;;;;;;;4.13;0.97;;;;;;;;;;4964024;28;20527;-73
2021/08/05 17:45:08;;;;;;;1.50;0.90;;;;;;;;;;4975321;28;20183;-73
2021/08/05 17:48:12;;;;;;;4.13;1.10;;;;;;;;;;4974873;28;20195;-73
2021/08/05 17:51:16;;;;;;;2.63;1.63;;;;;;;;;;4976692;28;20182;-74
2021/08/05 17:54:26;;;;;;;7.27;1.73;;;;;;;;;;4976525;28;20222;-73
2021/08/05 17:57:38;;;;;;;3.00;1.23;;;;;;;;;;4943831;28;20532;-73
2021/08/05 18:00:42;;;;;;;3.23;1.23;;;;;;;;;;4972117;28;20195;-72
2021/08/05 18:03:46;;;;;;;4.53;1.27;;;;;;;;;;4971849;28;20222;-72
2021/08/05 18:06:52;;;;;;;3.80;1.40;;;;;;;;;;4971712;28;20203;-73
2021/08/05 18:09:57;;;;;;;1.67;1.30;;;;;;;;;;4971823;28;20202;-73
2021/08/05 18:13:02;;;;;;;3.20;1.40;;;;;;;;;;4971554;28;20702;-72
2021/08/05 18:16:06;;;;;;;3.37;1.40;;;;;;;;;;4971432;28;20210;-73
2021/08/05 18:19:11;;;;;;;2.50;1.47;;;;;;;;;;4959096;28;20544;-72
2021/08/05 18:22:15;;;;;;;1.63;1.20;;;;;;;;;;4948531;28;20187;-72
2021/08/05 18:25:19;;;;;;;8.57;1.23;;;;;;;;;;4948383;28;20199;-72
2021/08/05 18:28:24;;;;;;;2.03;1.33;;;;;;;;;;4970410;28;20194;-72
2021/08/05 18:31:28;;;;;;;1.97;1.47;;;;;;;;;;4951752;29;20512;-72
2021/08/05 18:34:32;;;;;;;4.90;1.50;;;;;;;;;;4961703;28;20696;-73